Saltar para o conteúdo principal

Prazeres (Calheta)

ID 1210987 · 32.7572, -17.2016 mapa

Última leitura · 2026-05-09 18:00 (Europe/Lisbon)

Temperatura
12.7 °C
Humidade
92 %
Pressão
Precipitação
0.0 mm
Radiação
1,130 W/m²
Velocidade do vento
18.4 km/h
Direcção do vento
NW · Noroeste

Histórico de 24 horas

Hora (Europe/Lisbon) Temperatura Humidade Pressão Chuva Vento Direcção
2026-05-09 18:00 12.7 °C 92 % 0.0 mm 18.4 km/h NW
2026-05-09 17:00 12.6 °C 93 % 0.0 mm 18.7 km/h NW
2026-05-09 16:00 12.8 °C 90 % 0.0 mm 18.0 km/h NW
2026-05-09 15:00 12.7 °C 89 % 0.0 mm 19.1 km/h NW
2026-05-09 14:00 12.9 °C 90 % 0.0 mm 25.2 km/h NW
2026-05-09 13:00 12.7 °C 91 % 0.7 mm 23.0 km/h NW
2026-05-09 12:00 12.4 °C 95 % 0.0 mm 26.3 km/h NW
2026-05-09 11:00 11.8 °C 99 % 0.0 mm 25.9 km/h NW
2026-05-09 10:00 11.2 °C 100 % 0.0 mm 22.7 km/h NW
2026-05-09 09:00 11.1 °C 100 % 0.0 mm 22.7 km/h NW
2026-05-09 08:00 11.0 °C 100 % 0.0 mm 28.8 km/h NW
2026-05-09 07:00 10.8 °C 100 % 0.1 mm 28.8 km/h NW
2026-05-09 06:00 11.1 °C 100 % 0.0 mm 27.0 km/h NW
2026-05-09 05:00 11.1 °C 100 % 0.0 mm 25.6 km/h NW
2026-05-09 04:00 11.2 °C 100 % 1.4 mm 24.8 km/h NW
2026-05-09 03:00 11.3 °C 100 % 0.0 mm 27.7 km/h NW
2026-05-09 02:00 11.2 °C 100 % 0.0 mm 30.2 km/h NW
2026-05-09 01:00 11.4 °C 100 % 0.8 mm 33.1 km/h NW
2026-05-09 00:00 11.5 °C 100 % 0.0 mm 30.2 km/h NW
2026-05-08 23:00 11.6 °C 100 % 0.0 mm 34.2 km/h NW
2026-05-08 22:00 11.5 °C 100 % 0.2 mm 32.4 km/h NW
2026-05-08 21:00 11.7 °C 100 % 0.0 mm 37.1 km/h NW
2026-05-08 20:00 11.3 °C 99 % 3.4 mm 37.8 km/h NW
2026-05-08 19:00 12.1 °C 89 % 0.0 mm 23.8 km/h W